Time;durP1;ratioP1;P1;durP2;ratioP2;P2;SDS_P1;SDS_P2;PMS_P1;PMS_P2;Temp;Humidity;BMP_temperature;BMP_pressure;BME280_temperature;BME280_humidity;BME280_pressure;Samples;Min_cycle;Max_cycle;Signal;HPM_P1;HPM_P2
2022/07/22 00:01:02;;;;;;;10.05;2.85;;;;;;;;;;5052333;28;20025;-75
2022/07/22 00:03:28;;;;;;;19.33;4.25;;;;;;;;;;5052282;28;20068;-74
2022/07/22 00:05:54;;;;;;;12.85;3.35;;;;;;;;;;5034461;28;20383;-74
2022/07/22 00:08:20;;;;;;;11.70;3.30;;;;;;;;;;5050570;28;20067;-74
2022/07/22 00:10:46;;;;;;;11.40;3.22;;;;;;;;;;5051885;28;20029;-73
2022/07/22 00:13:12;;;;;;;14.30;3.33;;;;;;;;;;5051720;28;20457;-73
2022/07/22 00:15:38;;;;;;;18.88;4.50;;;;;;;;;;5051114;28;20075;-72
2022/07/22 00:18:04;;;;;;;13.70;3.40;;;;;;;;;;5051377;28;20040;-73
2022/07/22 00:20:30;;;;;;;10.77;2.40;;;;;;;;;;5050134;28;20025;-76
2022/07/22 00:22:56;;;;;;;13.27;3.15;;;;;;;;;;5050625;28;20032;-74
2022/07/22 00:25:24;;;;;;;12.18;2.70;;;;;;;;;;5051085;28;20032;-73
2022/07/22 00:27:50;;;;;;;21.50;4.18;;;;;;;;;;5051142;28;20059;-74
2022/07/22 00:30:16;;;;;;;9.55;2.83;;;;;;;;;;5051321;28;20040;-74
2022/07/22 00:32:42;;;;;;;12.95;2.65;;;;;;;;;;5051536;28;20037;-73
2022/07/22 00:35:08;;;;;;;11.15;2.80;;;;;;;;;;5050914;28;20395;-74
2022/07/22 00:37:34;;;;;;;11.43;2.60;;;;;;;;;;5050710;28;20048;-74
2022/07/22 00:40:00;;;;;;;11.63;2.85;;;;;;;;;;5051041;28;20041;-74
2022/07/22 00:42:26;;;;;;;10.95;3.10;;;;;;;;;;5051363;28;20025;-74
2022/07/22 00:44:52;;;;;;;11.43;3.25;;;;;;;;;;5052607;28;20166;-74
2022/07/22 00:47:18;;;;;;;12.70;3.42;;;;;;;;;;5051935;28;20112;-73
2022/07/22 00:49:44;;;;;;;10.48;3.08;;;;;;;;;;5053331;28;20417;-73
2022/07/22 00:52:11;;;;;;;10.98;2.63;;;;;;;;;;5053393;28;20028;-73
2022/07/22 00:54:37;;;;;;;9.45;2.97;;;;;;;;;;5052486;28;20029;-74
2022/07/22 00:57:04;;;;;;;11.23;2.85;;;;;;;;;;5051787;28;20017;-74
2022/07/22 00:59:30;;;;;;;11.90;3.70;;;;;;;;;;5052276;28;20121;-74
2022/07/22 01:01:56;;;;;;;13.35;2.47;;;;;;;;;;5052881;28;20037;-73
2022/07/22 01:04:22;;;;;;;8.85;2.65;;;;;;;;;;5053791;28;20021;-74
2022/07/22 01:06:48;;;;;;;12.43;2.83;;;;;;;;;;5054805;28;20072;-74
2022/07/22 01:09:14;;;;;;;12.30;2.80;;;;;;;;;;5053738;28;20021;-73
2022/07/22 01:11:40;;;;;;;13.48;2.53;;;;;;;;;;5055326;28;20553;-74
2022/07/22 01:14:07;;;;;;;9.57;2.83;;;;;;;;;;5054032;28;20028;-73
2022/07/22 01:16:33;;;;;;;11.52;2.42;;;;;;;;;;5055291;28;20040;-71
2022/07/22 01:18:59;;;;;;;8.23;2.85;;;;;;;;;;5053607;28;20107;-74
2022/07/22 01:21:25;;;;;;;17.63;3.20;;;;;;;;;;5055530;28;20110;-73
2022/07/22 01:23:51;;;;;;;11.75;2.92;;;;;;;;;;5055094;28;20442;-72
2022/07/22 01:26:18;;;;;;;11.40;2.65;;;;;;;;;;5054552;28;20048;-71
2022/07/22 01:28:44;;;;;;;11.27;2.67;;;;;;;;;;5054002;28;20158;-73
2022/07/22 01:31:10;;;;;;;12.35;3.00;;;;;;;;;;5056314;28;20036;-73
2022/07/22 01:33:36;;;;;;;11.20;2.75;;;;;;;;;;5055868;28;20075;-73
2022/07/22 01:36:03;;;;;;;13.23;3.00;;;;;;;;;;5054789;28;20040;-74
2022/07/22 01:38:29;;;;;;;13.32;2.67;;;;;;;;;;5055782;28;20100;-73
2022/07/22 01:40:55;;;;;;;8.98;2.75;;;;;;;;;;5055193;28;20013;-73
2022/07/22 01:43:21;;;;;;;11.02;2.85;;;;;;;;;;5055221;28;20036;-72
2022/07/22 01:45:49;;;;;;;12.75;3.22;;;;;;;;;;5051024;28;20082;-73
2022/07/22 01:48:15;;;;;;;12.05;3.17;;;;;;;;;;5038823;28;20112;-74
2022/07/22 01:50:41;;;;;;;14.63;2.85;;;;;;;;;;5040156;28;20018;-75
2022/07/22 01:53:07;;;;;;;11.20;2.97;;;;;;;;;;5040840;28;20048;-71
2022/07/22 01:55:33;;;;;;;9.38;2.70;;;;;;;;;;5038378;28;20033;-74
2022/07/22 01:57:59;;;;;;;11.13;3.05;;;;;;;;;;5039427;28;20127;-73
2022/07/22 02:00:26;;;;;;;12.27;3.30;;;;;;;;;;5040366;28;20038;-72
2022/07/22 02:02:52;;;;;;;9.48;2.85;;;;;;;;;;5039400;28;20022;-72
2022/07/22 02:05:18;;;;;;;12.80;2.80;;;;;;;;;;5038421;28;20029;-74
2022/07/22 02:07:44;;;;;;;11.48;3.03;;;;;;;;;;5038514;28;20036;-73
2022/07/22 02:10:10;;;;;;;13.00;2.97;;;;;;;;;;5038165;28;20097;-73
2022/07/22 02:12:36;;;;;;;11.23;2.92;;;;;;;;;;5035970;28;20025;-74
2022/07/22 02:15:02;;;;;;;14.50;3.20;;;;;;;;;;5034789;28;20112;-74
2022/07/22 02:17:28;;;;;;;9.75;3.25;;;;;;;;;;5033749;28;20033;-74
2022/07/22 02:19:55;;;;;;;15.65;2.97;;;;;;;;;;5034974;28;20390;-74
2022/07/22 02:22:21;;;;;;;20.10;3.50;;;;;;;;;;5033230;28;20037;-74
2022/07/22 02:24:47;;;;;;;11.15;2.65;;;;;;;;;;5032430;28;20033;-74
2022/07/22 02:27:13;;;;;;;14.63;3.00;;;;;;;;;;5033559;28;20090;-74
2022/07/22 02:29:39;;;;;;;10.88;2.75;;;;;;;;;;5033286;28;20060;-76
2022/07/22 02:32:05;;;;;;;13.27;3.50;;;;;;;;;;5033700;28;20038;-74
2022/07/22 02:34:31;;;;;;;11.43;3.13;;;;;;;;;;5033308;28;20033;-75
2022/07/22 02:36:57;;;;;;;11.75;2.60;;;;;;;;;;5032965;28;20468;-74
2022/07/22 02:39:23;;;;;;;9.13;2.60;;;;;;;;;;5032988;28;20029;-73
2022/07/22 02:41:49;;;;;;;11.38;2.70;;;;;;;;;;5032723;28;20120;-74
2022/07/22 02:44:15;;;;;;;9.48;2.75;;;;;;;;;;5033243;28;20040;-74
2022/07/22 02:46:41;;;;;;;12.35;2.90;;;;;;;;;;5032738;28;20488;-74
2022/07/22 02:49:07;;;;;;;14.25;3.08;;;;;;;;;;5033158;28;20032;-74
2022/07/22 02:51:33;;;;;;;10.85;2.90;;;;;;;;;;5031834;28;20108;-74
2022/07/22 02:53:59;;;;;;;10.48;2.45;;;;;;;;;;5033703;28;20016;-74
2022/07/22 02:56:25;;;;;;;13.40;2.75;;;;;;;;;;5033399;28;20399;-74
2022/07/22 02:58:52;;;;;;;11.95;3.10;;;;;;;;;;5032419;28;20042;-73
2022/07/22 03:01:19;;;;;;;16.02;2.92;;;;;;;;;;5033557;28;20075;-74
2022/07/22 03:03:46;;;;;;;14.20;3.45;;;;;;;;;;5033671;28;20041;-74
2022/07/22 03:06:12;;;;;;;16.10;3.67;;;;;;;;;;5033575;28;20041;-73
2022/07/22 03:08:39;;;;;;;10.50;2.88;;;;;;;;;;5034505;28;20486;-73
2022/07/22 03:11:05;;;;;;;6.20;2.67;;;;;;;;;;5034933;28;20051;-74
2022/07/22 03:13:31;;;;;;;11.13;3.10;;;;;;;;;;5035039;28;20064;-74
2022/07/22 03:15:57;;;;;;;12.48;2.88;;;;;;;;;;5035074;28;20038;-74
2022/07/22 03:18:23;;;;;;;21.38;3.50;;;;;;;;;;5035850;28;20554;-73
2022/07/22 03:20:49;;;;;;;10.32;2.72;;;;;;;;;;5036592;28;20013;-74
2022/07/22 03:23:15;;;;;;;13.27;2.90;;;;;;;;;;5036503;28;20033;-71
2022/07/22 03:25:41;;;;;;;8.40;2.50;;;;;;;;;;5034266;28;20438;-73
2022/07/22 03:28:07;;;;;;;14.80;2.90;;;;;;;;;;5036007;28;20056;-74
2022/07/22 03:30:34;;;;;;;15.07;2.67;;;;;;;;;;5037228;28;20132;-74
2022/07/22 03:33:00;;;;;;;11.75;2.67;;;;;;;;;;5037093;28;20056;-74
2022/07/22 03:35:26;;;;;;;8.75;2.20;;;;;;;;;;5035924;28;20025;-73
2022/07/22 03:37:52;;;;;;;11.82;3.25;;;;;;;;;;5037209;28;20024;-73
2022/07/22 03:40:18;;;;;;;12.68;3.42;;;;;;;;;;5037710;28;20148;-73
2022/07/22 03:42:44;;;;;;;10.48;2.90;;;;;;;;;;5036850;28;20446;-73
2022/07/22 03:45:10;;;;;;;12.25;3.10;;;;;;;;;;5036946;28;20529;-74
2022/07/22 03:47:36;;;;;;;17.52;2.67;;;;;;;;;;5037267;28;20029;-74
2022/07/22 03:50:03;;;;;;;12.60;3.33;;;;;;;;;;5037698;28;20025;-74
2022/07/22 03:52:30;;;;;;;13.48;3.45;;;;;;;;;;5036243;28;20108;-74
2022/07/22 03:54:56;;;;;;;10.32;2.90;;;;;;;;;;5037415;28;20075;-74
2022/07/22 03:57:22;;;;;;;11.63;2.50;;;;;;;;;;5037818;28;20033;-73
2022/07/22 03:59:48;;;;;;;7.10;2.95;;;;;;;;;;5037758;28;20046;-72
2022/07/22 04:02:14;;;;;;;14.00;2.30;;;;;;;;;;5034992;28;20030;-75
2022/07/22 04:04:40;;;;;;;9.98;2.35;;;;;;;;;;5037787;28;20056;-74
2022/07/22 04:07:06;;;;;;;12.82;2.97;;;;;;;;;;5038117;28;20025;-74
2022/07/22 04:09:32;;;;;;;10.80;2.63;;;;;;;;;;5038325;28;20098;-73
2022/07/22 04:11:58;;;;;;;9.00;2.88;;;;;;;;;;5035571;28;20037;-74
2022/07/22 04:14:24;;;;;;;12.80;2.25;;;;;;;;;;5037256;28;20558;-74
2022/07/22 04:16:50;;;;;;;10.55;2.22;;;;;;;;;;5037612;28;20044;-73
2022/07/22 04:19:16;;;;;;;7.93;2.25;;;;;;;;;;5035476;28;20029;-73
2022/07/22 04:21:42;;;;;;;17.95;2.75;;;;;;;;;;5033393;28;20025;-74
2022/07/22 04:24:08;;;;;;;10.27;2.10;;;;;;;;;;5032579;28;20120;-75
2022/07/22 04:26:36;;;;;;;6.45;1.67;;;;;;;;;;5033338;28;20064;-75
2022/07/22 04:29:02;;;;;;;14.45;1.88;;;;;;;;;;5032694;28;20483;-74
2022/07/22 04:31:28;;;;;;;8.05;1.63;;;;;;;;;;5031752;28;20150;-74
2022/07/22 04:33:54;;;;;;;8.70;2.03;;;;;;;;;;5032323;28;20029;-73
2022/07/22 04:36:20;;;;;;;4.00;1.60;;;;;;;;;;5031934;28;20037;-73
2022/07/22 04:38:46;;;;;;;10.48;2.17;;;;;;;;;;5030893;28;20026;-74
2022/07/22 04:41:12;;;;;;;6.90;1.80;;;;;;;;;;5031311;28;20025;-75
2022/07/22 04:43:38;;;;;;;12.80;2.10;;;;;;;;;;5031112;28;20387;-73
2022/07/22 04:46:05;;;;;;;8.02;2.30;;;;;;;;;;5029485;28;20034;-74
2022/07/22 04:48:31;;;;;;;6.03;1.80;;;;;;;;;;5031102;28;20372;-74
2022/07/22 04:51:01;;;;;;;6.75;1.80;;;;;;;;;;5030689;28;20029;-74
2022/07/22 04:53:27;;;;;;;5.95;1.90;;;;;;;;;;5030747;28;20040;-75
2022/07/22 04:55:53;;;;;;;9.10;2.15;;;;;;;;;;5030804;28;20095;-74
2022/07/22 04:58:19;;;;;;;14.38;1.88;;;;;;;;;;5030546;28;20048;-73
2022/07/22 05:00:46;;;;;;;7.68;2.08;;;;;;;;;;5030954;28;20044;-74
2022/07/22 05:03:12;;;;;;;8.68;1.90;;;;;;;;;;5030656;28;20022;-74
2022/07/22 05:05:38;;;;;;;4.68;1.20;;;;;;;;;;5030725;28;20120;-73
2022/07/22 05:08:04;;;;;;;5.07;1.75;;;;;;;;;;5031326;28;20112;-74
2022/07/22 05:10:32;;;;;;;7.45;1.60;;;;;;;;;;5031539;28;20079;-74
2022/07/22 05:12:58;;;;;;;13.63;2.20;;;;;;;;;;5031149;28;20553;-74
2022/07/22 05:15:24;;;;;;;5.55;1.92;;;;;;;;;;5032022;28;20044;-74
2022/07/22 05:17:50;;;;;;;9.75;1.77;;;;;;;;;;5033204;28;20041;-74
2022/07/22 05:20:16;;;;;;;5.25;1.70;;;;;;;;;;5033223;28;20033;-74
2022/07/22 05:22:43;;;;;;;7.63;1.85;;;;;;;;;;5035784;28;20029;-73
2022/07/22 05:25:09;;;;;;;8.90;1.75;;;;;;;;;;5037536;28;20076;-73
2022/07/22 05:27:35;;;;;;;9.20;1.83;;;;;;;;;;5038582;28;20541;-73
2022/07/22 05:30:01;;;;;;;10.90;1.77;;;;;;;;;;5038630;28;20041;-73
2022/07/22 05:32:27;;;;;;;8.63;1.70;;;;;;;;;;5039292;28;20025;-72
2022/07/22 05:34:53;;;;;;;9.23;1.80;;;;;;;;;;5037678;28;20028;-73
2022/07/22 05:37:19;;;;;;;10.55;1.67;;;;;;;;;;5039541;28;20391;-73
2022/07/22 05:39:45;;;;;;;6.10;1.60;;;;;;;;;;5039610;28;20020;-75
2022/07/22 05:42:11;;;;;;;11.50;1.70;;;;;;;;;;5038465;28;20030;-72
2022/07/22 05:44:37;;;;;;;7.80;1.92;;;;;;;;;;5038506;28;20041;-73
2022/07/22 05:47:03;;;;;;;5.63;1.65;;;;;;;;;;5040326;28;20038;-74
2022/07/22 05:49:29;;;;;;;10.43;1.45;;;;;;;;;;5040206;28;20038;-73
2022/07/22 05:52:00;;;;;;;6.32;1.30;;;;;;;;;;5039423;28;20095;-74
2022/07/22 05:54:26;;;;;;;2.78;1.20;;;;;;;;;;5038462;28;20109;-73
2022/07/22 05:56:52;;;;;;;3.70;1.45;;;;;;;;;;5039306;28;20088;-73
2022/07/22 05:59:18;;;;;;;5.97;1.95;;;;;;;;;;5039759;28;20085;-73
2022/07/22 06:01:44;;;;;;;5.07;1.27;;;;;;;;;;5039085;28;20018;-74
2022/07/22 06:04:10;;;;;;;8.60;1.60;;;;;;;;;;5039146;28;20399;-74
2022/07/22 06:06:36;;;;;;;6.07;1.40;;;;;;;;;;5039563;28;20029;-74
2022/07/22 06:09:02;;;;;;;9.00;1.40;;;;;;;;;;5040628;28;20131;-72
2022/07/22 06:11:28;;;;;;;4.47;1.58;;;;;;;;;;5038005;28;20116;-74
2022/07/22 06:13:54;;;;;;;13.30;1.80;;;;;;;;;;5038796;28;20057;-75
2022/07/22 06:16:20;;;;;;;5.57;1.30;;;;;;;;;;5039644;28;20052;-74
2022/07/22 06:18:46;;;;;;;9.35;1.98;;;;;;;;;;5039297;28;20071;-74
2022/07/22 06:21:12;;;;;;;10.50;2.08;;;;;;;;;;5037967;28;20052;-74
2022/07/22 06:23:38;;;;;;;6.82;1.75;;;;;;;;;;5037743;28;20026;-74
2022/07/22 06:26:04;;;;;;;17.92;2.50;;;;;;;;;;5037615;28;20038;-73
2022/07/22 06:28:30;;;;;;;8.15;1.80;;;;;;;;;;5035473;28;20037;-74
2022/07/22 06:30:56;;;;;;;8.13;1.67;;;;;;;;;;5035102;28;20025;-74
2022/07/22 06:33:22;;;;;;;5.97;1.45;;;;;;;;;;5033015;28;20033;-74
2022/07/22 06:35:48;;;;;;;9.70;1.65;;;;;;;;;;5034047;28;20065;-74
2022/07/22 06:38:14;;;;;;;5.65;1.40;;;;;;;;;;5034591;28;20034;-74
2022/07/22 06:40:40;;;;;;;11.13;2.08;;;;;;;;;;5034129;28;20041;-74
2022/07/22 06:43:06;;;;;;;7.47;1.58;;;;;;;;;;5032754;28;20095;-73
2022/07/22 06:45:32;;;;;;;6.40;1.40;;;;;;;;;;5033523;28;20038;-74
2022/07/22 06:47:59;;;;;;;11.48;1.95;;;;;;;;;;5033157;28;20025;-73
2022/07/22 06:50:25;;;;;;;4.10;1.33;;;;;;;;;;5033727;28;20029;-74
2022/07/22 06:52:51;;;;;;;6.53;1.67;;;;;;;;;;5033459;28;20132;-75
2022/07/22 06:55:17;;;;;;;5.15;1.25;;;;;;;;;;5033148;28;20021;-73
2022/07/22 06:57:43;;;;;;;5.85;1.50;;;;;;;;;;5033844;28;20033;-73
2022/07/22 07:00:09;;;;;;;4.75;1.33;;;;;;;;;;5032890;28;20095;-73
2022/07/22 07:02:36;;;;;;;5.85;1.40;;;;;;;;;;5033493;28;20108;-74
2022/07/22 07:05:02;;;;;;;5.90;1.42;;;;;;;;;;5033411;28;20021;-75
2022/07/22 07:07:28;;;;;;;5.38;1.52;;;;;;;;;;5033276;28;20155;-75
2022/07/22 07:09:54;;;;;;;5.85;1.30;;;;;;;;;;5032911;28;20092;-75
2022/07/22 07:12:20;;;;;;;5.82;1.33;;;;;;;;;;5031460;28;20042;-75
2022/07/22 07:14:46;;;;;;;8.40;1.83;;;;;;;;;;5032386;28;20455;-74
2022/07/22 07:17:12;;;;;;;5.53;1.30;;;;;;;;;;5032851;28;20025;-73
2022/07/22 07:19:38;;;;;;;7.47;2.03;;;;;;;;;;5033337;28;20449;-74
2022/07/22 07:22:04;;;;;;;4.88;1.27;;;;;;;;;;5031664;28;20029;-72
2022/07/22 07:24:30;;;;;;;6.38;1.23;;;;;;;;;;5031704;28;20148;-73
2022/07/22 07:26:56;;;;;;;6.88;1.90;;;;;;;;;;5033347;28;20064;-74
2022/07/22 07:29:22;;;;;;;10.65;1.83;;;;;;;;;;5035009;28;20049;-74
2022/07/22 07:31:48;;;;;;;7.32;1.30;;;;;;;;;;5035392;28;20487;-74
2022/07/22 07:34:15;;;;;;;6.88;1.42;;;;;;;;;;5034957;28;20038;-74
2022/07/22 07:36:41;;;;;;;4.97;1.35;;;;;;;;;;5035993;28;20033;-76
2022/07/22 07:39:07;;;;;;;3.88;1.33;;;;;;;;;;5035618;28;20030;-75
2022/07/22 07:41:33;;;;;;;4.72;1.30;;;;;;;;;;5037381;28;20017;-75
2022/07/22 07:43:59;;;;;;;8.25;1.73;;;;;;;;;;5034921;28;20107;-74
2022/07/22 07:46:25;;;;;;;8.50;2.25;;;;;;;;;;5038099;28;20025;-75
2022/07/22 07:48:51;;;;;;;8.25;1.60;;;;;;;;;;5038479;28;20064;-77
2022/07/22 07:51:17;;;;;;;5.65;1.55;;;;;;;;;;5038513;28;20045;-74
2022/07/22 07:53:43;;;;;;;7.38;1.63;;;;;;;;;;5036697;28;20029;-77
2022/07/22 07:56:09;;;;;;;11.02;1.70;;;;;;;;;;5039030;28;20073;-75
2022/07/22 07:58:35;;;;;;;8.52;1.92;;;;;;;;;;5039055;28;20033;-74
2022/07/22 08:01:01;;;;;;;7.93;2.00;;;;;;;;;;5038482;28;20037;-74
2022/07/22 08:03:27;;;;;;;8.23;1.60;;;;;;;;;;5036874;28;20063;-74
2022/07/22 08:05:53;;;;;;;7.30;1.60;;;;;;;;;;5039412;28;20025;-76
2022/07/22 08:08:19;;;;;;;4.72;1.63;;;;;;;;;;5039530;28;20031;-75
2022/07/22 08:10:45;;;;;;;7.00;1.90;;;;;;;;;;5037864;28;20021;-74
2022/07/22 08:13:11;;;;;;;8.48;1.65;;;;;;;;;;5038062;28;20120;-74
2022/07/22 08:15:37;;;;;;;5.85;1.48;;;;;;;;;;5038741;28;20022;-73
2022/07/22 08:18:04;;;;;;;7.93;1.95;;;;;;;;;;5038066;28;20064;-75
2022/07/22 08:20:30;;;;;;;10.05;2.50;;;;;;;;;;5037855;28;20119;-76
2022/07/22 08:22:57;;;;;;;6.82;1.80;;;;;;;;;;5037593;28;20033;-75
2022/07/22 08:25:23;;;;;;;5.43;1.90;;;;;;;;;;5038126;28;20031;-74
2022/07/22 08:27:49;;;;;;;8.63;1.92;;;;;;;;;;5037847;28;20037;-74
2022/07/22 08:30:16;;;;;;;6.68;2.15;;;;;;;;;;5036701;28;20014;-74
2022/07/22 08:32:42;;;;;;;5.47;2.40;;;;;;;;;;5035449;28;20026;-75
2022/07/22 08:35:09;;;;;;;5.90;2.00;;;;;;;;;;5036438;28;20491;-74
2022/07/22 08:37:35;;;;;;;17.52;2.70;;;;;;;;;;5035154;28;20048;-74
2022/07/22 08:40:01;;;;;;;5.78;2.20;;;;;;;;;;5034052;28;20025;-75
2022/07/22 08:42:27;;;;;;;6.30;2.20;;;;;;;;;;5033361;28;20566;-75
2022/07/22 08:44:53;;;;;;;7.53;2.72;;;;;;;;;;5030955;28;20030;-74
2022/07/22 08:47:25;;;;;;;8.18;2.40;;;;;;;;;;5031024;28;20037;-74
2022/07/22 08:49:51;;;;;;;6.40;2.55;;;;;;;;;;5032161;28;20479;-74
2022/07/22 08:52:18;;;;;;;4.30;1.73;;;;;;;;;;5032142;28;20063;-75
2022/07/22 08:54:44;;;;;;;5.22;2.25;;;;;;;;;;5031821;28;20030;-74
2022/07/22 08:57:10;;;;;;;7.88;2.40;;;;;;;;;;5031089;28;20030;-75
2022/07/22 08:59:49;;;;;;;5.35;2.63;;;;;;;;;;5029991;28;20589;-75
2022/07/22 09:02:15;;;;;;;6.55;3.72;;;;;;;;;;5031086;28;20021;-76
2022/07/22 09:05:01;;;;;;;9.38;5.22;;;;;;;;;;5029543;28;20041;-75
2022/07/22 09:07:37;;;;;;;9.73;5.68;;;;;;;;;;5031340;28;20372;-74
2022/07/22 09:10:08;;;;;;;9.07;4.50;;;;;;;;;;5033187;28;20032;-75
2022/07/22 09:12:34;;;;;;;8.60;4.38;;;;;;;;;;5045013;28;20091;-68
2022/07/22 09:15:01;;;;;;;6.82;3.55;;;;;;;;;;5045598;28;20036;-69
2022/07/22 09:17:27;;;;;;;6.93;3.72;;;;;;;;;;5048258;28;20063;-67
2022/07/22 09:19:54;;;;;;;6.13;3.95;;;;;;;;;;5044435;28;20025;-68
2022/07/22 09:22:37;;;;;;;4.28;3.13;;;;;;;;;;5047161;28;20034;-68
2022/07/22 09:25:20;;;;;;;5.90;3.00;;;;;;;;;;5047953;28;20486;-68
2022/07/22 09:27:47;;;;;;;6.43;3.67;;;;;;;;;;5049465;28;20033;-68
2022/07/22 09:30:17;;;;;;;6.22;3.72;;;;;;;;;;5046339;28;20367;-69
2022/07/22 09:32:43;;;;;;;8.90;4.28;;;;;;;;;;5037516;28;20030;-69
2022/07/22 09:35:10;;;;;;;7.18;3.38;;;;;;;;;;5042506;28;20030;-69
2022/07/22 09:37:56;;;;;;;6.40;3.13;;;;;;;;;;5046629;28;20029;-69
2022/07/22 09:40:27;;;;;;;6.82;3.30;;;;;;;;;;5040068;28;20029;-69
2022/07/22 09:42:53;;;;;;;;;;;;;;;;;;5041783;28;20478;-69
2022/07/22 09:45:20;;;;;;;6.45;2.40;;;;;;;;;;5047901;28;19950;-68
2022/07/22 09:47:46;;;;;;;6.88;3.20;;;;;;;;;;5048205;28;20513;-68
2022/07/22 09:50:20;;;;;;;4.82;2.30;;;;;;;;;;5045646;28;20075;-68
2022/07/22 09:52:46;;;;;;;6.88;2.67;;;;;;;;;;5049821;28;20052;-67
2022/07/22 09:55:15;;;;;;;5.25;2.88;;;;;;;;;;5049191;28;20025;-69
2022/07/22 09:57:41;;;;;;;7.10;2.90;;;;;;;;;;5049581;28;20136;-69
2022/07/22 10:00:10;;;;;;;7.53;2.95;;;;;;;;;;5049044;28;20033;-68
2022/07/22 10:02:40;;;;;;;5.90;2.30;;;;;;;;;;5049525;28;20041;-68
2022/07/22 10:05:07;;;;;;;7.30;3.08;;;;;;;;;;5049393;28;20483;-69
2022/07/22 10:07:34;;;;;;;5.90;2.83;;;;;;;;;;5049720;28;20040;-68
2022/07/22 10:10:00;;;;;;;6.53;3.08;;;;;;;;;;5052017;28;20459;-67
2022/07/22 10:12:27;;;;;;;7.22;2.65;;;;;;;;;;5053445;28;20061;-69
2022/07/22 10:14:53;;;;;;;4.35;2.70;;;;;;;;;;5053192;28;20125;-69
2022/07/22 10:17:19;;;;;;;9.55;3.00;;;;;;;;;;5053329;28;20040;-68
2022/07/22 10:19:45;;;;;;;5.18;2.97;;;;;;;;;;5053737;28;20086;-68
2022/07/22 10:22:30;;;;;;;6.43;3.33;;;;;;;;;;5053060;28;20060;-68
2022/07/22 10:25:02;;;;;;;6.53;4.05;;;;;;;;;;5052997;28;20041;-68
2022/07/22 10:27:47;;;;;;;7.22;3.40;;;;;;;;;;5053656;28;20113;-67
2022/07/22 10:30:15;;;;;;;6.20;2.78;;;;;;;;;;5053486;28;20525;-68
2022/07/22 10:32:41;;;;;;;6.40;2.75;;;;;;;;;;5053362;28;20029;-68
2022/07/22 10:35:07;;;;;;;8.75;3.17;;;;;;;;;;5052224;28;20033;-68
2022/07/22 10:37:38;;;;;;;36.38;6.03;;;;;;;;;;5053588;28;20028;-68
2022/07/22 10:40:11;;;;;;;5.03;2.30;;;;;;;;;;5053796;28;20028;-68
2022/07/22 10:42:59;;;;;;;4.40;2.20;;;;;;;;;;5054065;28;20032;-68
2022/07/22 10:45:26;;;;;;;6.57;2.25;;;;;;;;;;5053975;28;20041;-67
2022/07/22 10:47:56;;;;;;;4.63;2.28;;;;;;;;;;5033944;28;20104;-68
2022/07/22 10:50:40;;;;;;;8.38;2.13;;;;;;;;;;5034001;28;20025;-69
2022/07/22 10:53:07;;;;;;;5.88;2.45;;;;;;;;;;5033866;28;20116;-69
2022/07/22 10:55:34;;;;;;;6.22;3.30;;;;;;;;;;5034970;28;20088;-68
2022/07/22 10:58:00;;;;;;;6.05;2.40;;;;;;;;;;5036252;28;20021;-67
2022/07/22 11:00:27;;;;;;;22.13;4.10;;;;;;;;;;5033780;28;20321;-68
2022/07/22 11:02:53;;;;;;;8.07;3.30;;;;;;;;;;5033724;28;20026;-69
2022/07/22 11:05:25;;;;;;;5.75;3.30;;;;;;;;;;5032838;28;20049;-69
2022/07/22 11:07:51;;;;;;;4.43;2.90;;;;;;;;;;5033379;28;20029;-69
2022/07/22 11:10:18;;;;;;;5.55;3.33;;;;;;;;;;5033956;28;20034;-70
2022/07/22 11:12:45;;;;;;;3.95;2.67;;;;;;;;;;5034034;28;20033;-69
2022/07/22 11:15:11;;;;;;;6.93;3.08;;;;;;;;;;5033016;28;20029;-69
2022/07/22 11:17:38;;;;;;;5.03;2.50;;;;;;;;;;5033660;28;20613;-69
2022/07/22 11:20:05;;;;;;;9.05;3.05;;;;;;;;;;5032860;28;20487;-68
2022/07/22 11:22:32;;;;;;;5.20;2.65;;;;;;;;;;5032395;28;20028;-68
2022/07/22 11:25:00;;;;;;;4.80;2.60;;;;;;;;;;5032932;28;20064;-68
2022/07/22 11:27:26;;;;;;;5.78;2.60;;;;;;;;;;5035233;28;20022;-69
2022/07/22 11:29:53;;;;;;;4.88;2.47;;;;;;;;;;5032683;28;20033;-69
2022/07/22 11:32:20;;;;;;;8.80;2.92;;;;;;;;;;5031205;28;20037;-69
2022/07/22 11:34:46;;;;;;;4.65;2.03;;;;;;;;;;5032864;28;20052;-69
2022/07/22 11:37:13;;;;;;;4.40;2.10;;;;;;;;;;5033190;28;20033;-68
2022/07/22 11:39:39;;;;;;;5.55;2.15;;;;;;;;;;5032790;28;20499;-68
2022/07/22 11:42:06;;;;;;;7.78;2.63;;;;;;;;;;5032829;28;20032;-69
2022/07/22 11:44:34;;;;;;;7.07;2.60;;;;;;;;;;5031158;28;20564;-69
2022/07/22 11:47:00;;;;;;;7.20;2.60;;;;;;;;;;5032653;28;20033;-69
2022/07/22 11:49:30;;;;;;;7.53;2.28;;;;;;;;;;5031975;28;20029;-69
2022/07/22 11:51:56;;;;;;;5.97;2.10;;;;;;;;;;5031986;28;20036;-69
2022/07/22 11:54:22;;;;;;;13.13;2.30;;;;;;;;;;5032118;28;20032;-69
2022/07/22 11:56:48;;;;;;;9.43;2.10;;;;;;;;;;5031477;28;20490;-69
2022/07/22 11:59:17;;;;;;;3.78;1.67;;;;;;;;;;5031574;28;20049;-69
2022/07/22 12:01:43;;;;;;;5.05;1.88;;;;;;;;;;5031234;28;20100;-68
2022/07/22 12:04:17;;;;;;;4.38;1.70;;;;;;;;;;5031491;28;20079;-68
2022/07/22 12:06:44;;;;;;;7.45;1.92;;;;;;;;;;5031533;28;20032;-69
2022/07/22 12:09:12;;;;;;;15.85;2.10;;;;;;;;;;5030111;28;20137;-67
2022/07/22 12:11:39;;;;;;;6.50;2.30;;;;;;;;;;5031170;28;20061;-67
2022/07/22 12:14:09;;;;;;;4.97;1.83;;;;;;;;;;5031338;28;20025;-68
2022/07/22 12:16:36;;;;;;;3.47;1.42;;;;;;;;;;5030974;28;20047;-67
2022/07/22 12:19:02;;;;;;;4.40;1.20;;;;;;;;;;5030474;28;20053;-68
2022/07/22 12:21:29;;;;;;;3.25;1.00;;;;;;;;;;5030936;28;20028;-68
2022/07/22 12:24:05;;;;;;;9.02;2.25;;;;;;;;;;5030639;28;20021;-69
2022/07/22 12:26:45;;;;;;;5.72;1.20;;;;;;;;;;5030313;28;20116;-68
2022/07/22 12:29:14;;;;;;;3.75;1.60;;;;;;;;;;5030673;28;20104;-69
2022/07/22 12:31:47;;;;;;;3.75;1.60;;;;;;;;;;5029683;28;20475;-68
2022/07/22 12:34:14;;;;;;;3.97;1.50;;;;;;;;;;5030721;28;20080;-68
2022/07/22 12:36:43;;;;;;;5.20;1.40;;;;;;;;;;5030032;28;20033;-69
2022/07/22 12:39:13;;;;;;;3.72;1.50;;;;;;;;;;5030276;28;20068;-68
2022/07/22 12:41:45;;;;;;;7.07;1.92;;;;;;;;;;5030186;28;20075;-68
2022/07/22 12:44:37;;;;;;;6.03;2.33;;;;;;;;;;5030377;28;20053;-67
2022/07/22 12:47:03;;;;;;;3.10;1.48;;;;;;;;;;5026812;28;20049;-67
2022/07/22 12:49:29;;;;;;;7.13;1.85;;;;;;;;;;5030396;28;20030;-68
2022/07/22 12:52:08;;;;;;;7.55;2.15;;;;;;;;;;5030220;28;20134;-69
2022/07/22 12:54:35;;;;;;;3.80;1.58;;;;;;;;;;5030190;28;20029;-69
2022/07/22 12:57:01;;;;;;;6.22;1.40;;;;;;;;;;5030037;28;20035;-69
2022/07/22 12:59:27;;;;;;;3.63;1.35;;;;;;;;;;5029711;28;20495;-68
2022/07/22 13:01:53;;;;;;;3.20;1.77;;;;;;;;;;5030176;28;20059;-68
2022/07/22 13:04:19;;;;;;;3.08;1.30;;;;;;;;;;5030081;28;20513;-68
2022/07/22 13:06:45;;;;;;;4.72;1.20;;;;;;;;;;5029818;28;20077;-68
2022/07/22 13:09:11;;;;;;;4.13;1.40;;;;;;;;;;5029870;28;20083;-68
2022/07/22 13:11:43;;;;;;;5.32;1.20;;;;;;;;;;5030217;28;20286;-69
2022/07/22 13:14:09;;;;;;;2.97;1.23;;;;;;;;;;5030220;28;20117;-69
2022/07/22 13:16:35;;;;;;;2.92;1.45;;;;;;;;;;5030272;28;20362;-68
2022/07/22 13:19:01;;;;;;;7.43;1.40;;;;;;;;;;5030222;28;20025;-67
2022/07/22 13:21:27;;;;;;;5.10;1.50;;;;;;;;;;5030809;28;20057;-68
2022/07/22 13:23:53;;;;;;;3.78;1.25;;;;;;;;;;5030558;28;20498;-68
2022/07/22 13:26:20;;;;;;;3.45;1.27;;;;;;;;;;5031578;28;20038;-69
2022/07/22 13:28:46;;;;;;;3.85;1.20;;;;;;;;;;5031333;28;20067;-69
2022/07/22 13:31:12;;;;;;;4.72;1.23;;;;;;;;;;5031187;28;20037;-68
2022/07/22 13:33:38;;;;;;;10.90;1.50;;;;;;;;;;5030806;28;20479;-68
2022/07/22 13:36:05;;;;;;;5.68;1.77;;;;;;;;;;5031116;28;20030;-69
2022/07/22 13:38:31;;;;;;;4.35;1.50;;;;;;;;;;5032125;28;20033;-66
2022/07/22 13:40:57;;;;;;;5.35;1.63;;;;;;;;;;5031286;28;20045;-69
2022/07/22 13:43:24;;;;;;;3.60;1.58;;;;;;;;;;5033328;28;20025;-68
2022/07/22 13:45:51;;;;;;;3.55;1.30;;;;;;;;;;5035192;28;20033;-69
2022/07/22 13:48:19;;;;;;;2.78;1.30;;;;;;;;;;5036581;28;20108;-68
2022/07/22 13:50:45;;;;;;;6.88;1.75;;;;;;;;;;5049630;28;20033;-69
2022/07/22 13:53:11;;;;;;;6.72;1.98;;;;;;;;;;5036153;28;20502;-69
2022/07/22 13:55:41;;;;;;;6.15;1.60;;;;;;;;;;5046667;28;20036;-69
2022/07/22 13:58:07;;;;;;;3.03;1.60;;;;;;;;;;5055108;28;20395;-68
2022/07/22 14:00:33;;;;;;;4.68;1.20;;;;;;;;;;5052682;28;20060;-68
2022/07/22 14:03:00;;;;;;;4.63;1.83;;;;;;;;;;5054640;28;20496;-69
2022/07/22 14:05:26;;;;;;;9.63;2.00;;;;;;;;;;5055251;28;20125;-69
2022/07/22 14:07:52;;;;;;;3.63;1.52;;;;;;;;;;5042491;28;20029;-68
2022/07/22 14:10:18;;;;;;;5.82;1.73;;;;;;;;;;5035675;28;20033;-70
2022/07/22 14:12:44;;;;;;;4.72;1.80;;;;;;;;;;5036448;28;20521;-68
2022/07/22 14:15:11;;;;;;;4.68;1.98;;;;;;;;;;5034776;28;20037;-68
2022/07/22 14:17:38;;;;;;;6.80;2.45;;;;;;;;;;5035469;28;20407;-69
2022/07/22 14:20:06;;;;;;;5.20;1.65;;;;;;;;;;5034200;28;20041;-68
2022/07/22 14:22:32;;;;;;;3.63;2.10;;;;;;;;;;5035485;28;20025;-69
2022/07/22 14:24:58;;;;;;;7.13;2.50;;;;;;;;;;5036912;28;20072;-68
2022/07/22 14:27:24;;;;;;;6.22;2.50;;;;;;;;;;5035616;28;20044;-68
2022/07/22 14:29:50;;;;;;;9.27;2.70;;;;;;;;;;5036268;28;20432;-68
2022/07/22 14:32:16;;;;;;;8.85;2.15;;;;;;;;;;5036046;28;20033;-68
2022/07/22 14:34:42;;;;;;;4.35;2.28;;;;;;;;;;5037003;28;20033;-68
2022/07/22 14:37:09;;;;;;;10.65;2.90;;;;;;;;;;5035223;28;20048;-69